sensor_id;sensor_type;location;lat;lon;timestamp;P1;durP1;ratioP1;P2;durP2;ratioP2
19521;SDS011;9905;52.126;5.596;2023-03-31T00:00:24;8.18;;;7.35;;
19521;SDS011;9905;52.126;5.596;2023-03-31T00:02:51;9.55;;;7.40;;
19521;SDS011;9905;52.126;5.596;2023-03-31T00:05:20;7.88;;;7.20;;
19521;SDS011;9905;52.126;5.596;2023-03-31T00:07:51;8.18;;;7.35;;
19521;SDS011;9905;52.126;5.596;2023-03-31T00:10:18;7.07;;;6.57;;
19521;SDS011;9905;52.126;5.596;2023-03-31T00:12:47;7.25;;;6.57;;
19521;SDS011;9905;52.126;5.596;2023-03-31T00:15:14;8.10;;;7.50;;
19521;SDS011;9905;52.126;5.596;2023-03-31T00:17:41;8.68;;;7.05;;
19521;SDS011;9905;52.126;5.596;2023-03-31T00:20:08;7.32;;;6.70;;
19521;SDS011;9905;52.126;5.596;2023-03-31T00:22:36;7.15;;;6.63;;
19521;SDS011;9905;52.126;5.596;2023-03-31T00:25:06;8.02;;;7.28;;
19521;SDS011;9905;52.126;5.596;2023-03-31T00:27:34;6.93;;;6.57;;
19521;SDS011;9905;52.126;5.596;2023-03-31T00:30:02;6.97;;;6.57;;
19521;SDS011;9905;52.126;5.596;2023-03-31T00:32:29;7.47;;;6.70;;
19521;SDS011;9905;52.126;5.596;2023-03-31T00:34:57;6.70;;;6.30;;
19521;SDS011;9905;52.126;5.596;2023-03-31T00:37:26;7.40;;;6.70;;
19521;SDS011;9905;52.126;5.596;2023-03-31T00:39:53;9.65;;;6.43;;
19521;SDS011;9905;52.126;5.596;2023-03-31T00:42:20;7.10;;;6.40;;
19521;SDS011;9905;52.126;5.596;2023-03-31T00:47:48;9.02;;;6.65;;
19521;SDS011;9905;52.126;5.596;2023-03-31T00:50:19;7.10;;;6.40;;
19521;SDS011;9905;52.126;5.596;2023-03-31T00:52:48;7.88;;;7.03;;
19521;SDS011;9905;52.126;5.596;2023-03-31T00:55:20;6.57;;;6.10;;
19521;SDS011;9905;52.126;5.596;2023-03-31T00:57:51;6.88;;;6.38;;
19521;SDS011;9905;52.126;5.596;2023-03-31T01:00:20;7.60;;;7.00;;
19521;SDS011;9905;52.126;5.596;2023-03-31T01:02:48;7.15;;;6.55;;
19521;SDS011;9905;52.126;5.596;2023-03-31T01:05:20;7.40;;;6.82;;
19521;SDS011;9905;52.126;5.596;2023-03-31T01:07:49;8.25;;;7.50;;
19521;SDS011;9905;52.126;5.596;2023-03-31T01:10:18;7.80;;;7.05;;
19521;SDS011;9905;52.126;5.596;2023-03-31T01:12:46;8.75;;;8.05;;
19521;SDS011;9905;52.126;5.596;2023-03-31T01:15:15;7.43;;;7.03;;
19521;SDS011;9905;52.126;5.596;2023-03-31T01:17:43;10.60;;;8.35;;
19521;SDS011;9905;52.126;5.596;2023-03-31T01:20:12;11.35;;;7.47;;
19521;SDS011;9905;52.126;5.596;2023-03-31T01:25:50;8.50;;;7.75;;
19521;SDS011;9905;52.126;5.596;2023-03-31T01:28:37;8.18;;;7.68;;
19521;SDS011;9905;52.126;5.596;2023-03-31T01:31:25;9.77;;;8.82;;
19521;SDS011;9905;52.126;5.596;2023-03-31T01:34:33;10.75;;;10.15;;
19521;SDS011;9905;52.126;5.596;2023-03-31T01:40:25;10.13;;;9.43;;
19521;SDS011;9905;52.126;5.596;2023-03-31T01:43:28;11.35;;;10.60;;
19521;SDS011;9905;52.126;5.596;2023-03-31T01:46:03;10.40;;;9.90;;
19521;SDS011;9905;52.126;5.596;2023-03-31T01:48:39;10.55;;;9.98;;
19521;SDS011;9905;52.126;5.596;2023-03-31T01:51:14;11.40;;;10.60;;
19521;SDS011;9905;52.126;5.596;2023-03-31T01:53:47;11.90;;;10.70;;
19521;SDS011;9905;52.126;5.596;2023-03-31T01:56:19;11.13;;;10.13;;
19521;SDS011;9905;52.126;5.596;2023-03-31T01:58:52;12.55;;;11.25;;
19521;SDS011;9905;52.126;5.596;2023-03-31T02:01:24;12.43;;;11.18;;
19521;SDS011;9905;52.126;5.596;2023-03-31T02:03:57;11.73;;;10.75;;
19521;SDS011;9905;52.126;5.596;2023-03-31T02:06:29;11.20;;;10.45;;
19521;SDS011;9905;52.126;5.596;2023-03-31T02:09:03;11.10;;;10.30;;
19521;SDS011;9905;52.126;5.596;2023-03-31T02:11:36;14.07;;;11.25;;
19521;SDS011;9905;52.126;5.596;2023-03-31T02:14:07;10.30;;;9.80;;
19521;SDS011;9905;52.126;5.596;2023-03-31T02:16:36;10.57;;;9.88;;
19521;SDS011;9905;52.126;5.596;2023-03-31T02:19:05;10.07;;;9.48;;
19521;SDS011;9905;52.126;5.596;2023-03-31T02:21:38;10.70;;;9.45;;
19521;SDS011;9905;52.126;5.596;2023-03-31T02:24:06;10.40;;;9.48;;
19521;SDS011;9905;52.126;5.596;2023-03-31T02:26:39;10.57;;;9.57;;
19521;SDS011;9905;52.126;5.596;2023-03-31T02:29:10;10.82;;;9.30;;
19521;SDS011;9905;52.126;5.596;2023-03-31T02:31:37;9.88;;;8.90;;
19521;SDS011;9905;52.126;5.596;2023-03-31T02:34:10;9.93;;;9.13;;
19521;SDS011;9905;52.126;5.596;2023-03-31T02:36:37;9.60;;;8.80;;
19521;SDS011;9905;52.126;5.596;2023-03-31T02:39:07;9.38;;;8.70;;
19521;SDS011;9905;52.126;5.596;2023-03-31T02:41:38;9.75;;;9.10;;
19521;SDS011;9905;52.126;5.596;2023-03-31T02:44:05;10.10;;;9.40;;
19521;SDS011;9905;52.126;5.596;2023-03-31T02:46:32;9.90;;;9.15;;
19521;SDS011;9905;52.126;5.596;2023-03-31T02:48:59;10.80;;;9.75;;
19521;SDS011;9905;52.126;5.596;2023-03-31T02:51:35;11.15;;;9.25;;
19521;SDS011;9905;52.126;5.596;2023-03-31T02:54:20;11.13;;;10.15;;
19521;SDS011;9905;52.126;5.596;2023-03-31T02:57:16;11.43;;;10.52;;
19521;SDS011;9905;52.126;5.596;2023-03-31T03:00:02;11.60;;;10.90;;
19521;SDS011;9905;52.126;5.596;2023-03-31T03:02:36;12.80;;;11.55;;
19521;SDS011;9905;52.126;5.596;2023-03-31T03:05:15;12.07;;;11.38;;
19521;SDS011;9905;52.126;5.596;2023-03-31T03:07:51;11.50;;;10.50;;
19521;SDS011;9905;52.126;5.596;2023-03-31T03:10:27;11.88;;;11.07;;
19521;SDS011;9905;52.126;5.596;2023-03-31T03:13:04;10.15;;;9.55;;
19521;SDS011;9905;52.126;5.596;2023-03-31T03:15:34;10.52;;;10.00;;
19521;SDS011;9905;52.126;5.596;2023-03-31T03:18:05;10.95;;;10.30;;
19521;SDS011;9905;52.126;5.596;2023-03-31T03:20:32;11.35;;;10.60;;
19521;SDS011;9905;52.126;5.596;2023-03-31T03:22:59;11.85;;;11.07;;
19521;SDS011;9905;52.126;5.596;2023-03-31T03:25:26;13.57;;;12.38;;
19521;SDS011;9905;52.126;5.596;2023-03-31T03:27:54;11.75;;;10.95;;
19521;SDS011;9905;52.126;5.596;2023-03-31T03:30:22;11.10;;;10.52;;
19521;SDS011;9905;52.126;5.596;2023-03-31T03:32:49;12.70;;;12.02;;
19521;SDS011;9905;52.126;5.596;2023-03-31T03:35:16;13.23;;;12.10;;
19521;SDS011;9905;52.126;5.596;2023-03-31T03:37:43;12.95;;;12.02;;
19521;SDS011;9905;52.126;5.596;2023-03-31T03:40:09;13.35;;;12.27;;
19521;SDS011;9905;52.126;5.596;2023-03-31T03:42:36;13.63;;;12.88;;
19521;SDS011;9905;52.126;5.596;2023-03-31T03:45:03;13.40;;;12.50;;
19521;SDS011;9905;52.126;5.596;2023-03-31T03:47:32;13.63;;;12.45;;
19521;SDS011;9905;52.126;5.596;2023-03-31T03:50:00;14.55;;;13.90;;
19521;SDS011;9905;52.126;5.596;2023-03-31T03:52:27;14.35;;;13.40;;
19521;SDS011;9905;52.126;5.596;2023-03-31T03:54:53;13.95;;;13.30;;
19521;SDS011;9905;52.126;5.596;2023-03-31T03:57:20;15.02;;;14.00;;
19521;SDS011;9905;52.126;5.596;2023-03-31T03:59:47;15.45;;;14.32;;
19521;SDS011;9905;52.126;5.596;2023-03-31T04:02:14;14.65;;;13.63;;
19521;SDS011;9905;52.126;5.596;2023-03-31T04:04:42;14.60;;;14.10;;
19521;SDS011;9905;52.126;5.596;2023-03-31T04:07:09;15.60;;;14.80;;
19521;SDS011;9905;52.126;5.596;2023-03-31T04:09:35;14.80;;;14.00;;
19521;SDS011;9905;52.126;5.596;2023-03-31T04:12:02;16.58;;;15.77;;
19521;SDS011;9905;52.126;5.596;2023-03-31T04:14:29;15.75;;;14.93;;
19521;SDS011;9905;52.126;5.596;2023-03-31T04:16:56;16.98;;;16.08;;
19521;SDS011;9905;52.126;5.596;2023-03-31T04:19:23;16.00;;;15.23;;
19521;SDS011;9905;52.126;5.596;2023-03-31T04:21:52;16.30;;;15.48;;
19521;SDS011;9905;52.126;5.596;2023-03-31T04:24:26;16.88;;;16.08;;
19521;SDS011;9905;52.126;5.596;2023-03-31T04:26:57;17.15;;;16.30;;
19521;SDS011;9905;52.126;5.596;2023-03-31T04:29:24;17.30;;;16.60;;
19521;SDS011;9905;52.126;5.596;2023-03-31T04:31:52;18.25;;;17.25;;
19521;SDS011;9905;52.126;5.596;2023-03-31T04:34:22;18.58;;;17.70;;
19521;SDS011;9905;52.126;5.596;2023-03-31T04:37:00;20.83;;;19.67;;
19521;SDS011;9905;52.126;5.596;2023-03-31T04:39:28;20.58;;;19.67;;
19521;SDS011;9905;52.126;5.596;2023-03-31T04:41:55;21.20;;;20.00;;
19521;SDS011;9905;52.126;5.596;2023-03-31T04:44:22;22.15;;;20.95;;
19521;SDS011;9905;52.126;5.596;2023-03-31T04:46:50;23.23;;;21.50;;
19521;SDS011;9905;52.126;5.596;2023-03-31T04:49:16;23.08;;;21.42;;
19521;SDS011;9905;52.126;5.596;2023-03-31T04:51:43;23.20;;;21.88;;
19521;SDS011;9905;52.126;5.596;2023-03-31T04:54:11;25.55;;;24.33;;
19521;SDS011;9905;52.126;5.596;2023-03-31T04:56:38;25.65;;;24.08;;
19521;SDS011;9905;52.126;5.596;2023-03-31T04:59:05;28.65;;;27.00;;
19521;SDS011;9905;52.126;5.596;2023-03-31T05:01:32;25.10;;;23.92;;
19521;SDS011;9905;52.126;5.596;2023-03-31T05:04:00;25.73;;;24.13;;
19521;SDS011;9905;52.126;5.596;2023-03-31T05:06:27;26.58;;;24.90;;
19521;SDS011;9905;52.126;5.596;2023-03-31T05:08:54;25.75;;;24.63;;
19521;SDS011;9905;52.126;5.596;2023-03-31T05:11:22;25.40;;;23.98;;
19521;SDS011;9905;52.126;5.596;2023-03-31T05:13:49;25.40;;;24.20;;
19521;SDS011;9905;52.126;5.596;2023-03-31T05:16:15;26.45;;;25.35;;
19521;SDS011;9905;52.126;5.596;2023-03-31T05:18:43;25.67;;;24.23;;
19521;SDS011;9905;52.126;5.596;2023-03-31T05:21:11;25.92;;;24.58;;
19521;SDS011;9905;52.126;5.596;2023-03-31T05:23:39;25.40;;;24.10;;
19521;SDS011;9905;52.126;5.596;2023-03-31T05:26:06;26.35;;;24.77;;
19521;SDS011;9905;52.126;5.596;2023-03-31T05:28:35;25.42;;;24.10;;
19521;SDS011;9905;52.126;5.596;2023-03-31T05:31:03;28.20;;;26.80;;
19521;SDS011;9905;52.126;5.596;2023-03-31T05:33:31;27.10;;;25.38;;
19521;SDS011;9905;52.126;5.596;2023-03-31T05:35:58;27.20;;;25.88;;
19521;SDS011;9905;52.126;5.596;2023-03-31T05:38:25;27.50;;;26.10;;
19521;SDS011;9905;52.126;5.596;2023-03-31T05:40:55;27.67;;;25.98;;
19521;SDS011;9905;52.126;5.596;2023-03-31T05:43:22;29.55;;;27.38;;
19521;SDS011;9905;52.126;5.596;2023-03-31T05:45:50;27.60;;;26.10;;
19521;SDS011;9905;52.126;5.596;2023-03-31T05:48:17;28.65;;;26.83;;
19521;SDS011;9905;52.126;5.596;2023-03-31T05:50:44;27.63;;;26.25;;
19521;SDS011;9905;52.126;5.596;2023-03-31T05:53:11;28.48;;;26.95;;
19521;SDS011;9905;52.126;5.596;2023-03-31T05:55:37;28.88;;;27.23;;
19521;SDS011;9905;52.126;5.596;2023-03-31T05:58:04;28.65;;;26.88;;
19521;SDS011;9905;52.126;5.596;2023-03-31T06:00:32;28.73;;;27.02;;
19521;SDS011;9905;52.126;5.596;2023-03-31T06:03:01;29.35;;;27.60;;
19521;SDS011;9905;52.126;5.596;2023-03-31T06:05:28;28.80;;;27.10;;
19521;SDS011;9905;52.126;5.596;2023-03-31T06:07:55;29.20;;;27.63;;
19521;SDS011;9905;52.126;5.596;2023-03-31T06:10:21;28.02;;;26.50;;
19521;SDS011;9905;52.126;5.596;2023-03-31T06:12:48;28.00;;;26.40;;
19521;SDS011;9905;52.126;5.596;2023-03-31T06:15:15;26.35;;;25.05;;
19521;SDS011;9905;52.126;5.596;2023-03-31T06:17:42;27.70;;;26.02;;
19521;SDS011;9905;52.126;5.596;2023-03-31T06:20:10;27.50;;;26.13;;
19521;SDS011;9905;52.126;5.596;2023-03-31T06:22:37;27.20;;;25.75;;
19521;SDS011;9905;52.126;5.596;2023-03-31T06:25:04;26.55;;;25.17;;
19521;SDS011;9905;52.126;5.596;2023-03-31T06:27:31;26.63;;;25.05;;
19521;SDS011;9905;52.126;5.596;2023-03-31T06:29:58;25.75;;;24.65;;
19521;SDS011;9905;52.126;5.596;2023-03-31T06:32:24;27.10;;;25.88;;
19521;SDS011;9905;52.126;5.596;2023-03-31T06:34:51;26.73;;;25.55;;
19521;SDS011;9905;52.126;5.596;2023-03-31T06:37:19;25.15;;;23.88;;
19521;SDS011;9905;52.126;5.596;2023-03-31T06:39:46;26.25;;;24.90;;
19521;SDS011;9905;52.126;5.596;2023-03-31T06:42:13;26.25;;;25.05;;
19521;SDS011;9905;52.126;5.596;2023-03-31T06:44:40;25.55;;;24.35;;
19521;SDS011;9905;52.126;5.596;2023-03-31T06:47:06;25.20;;;24.08;;
19521;SDS011;9905;52.126;5.596;2023-03-31T06:49:33;26.00;;;24.80;;
19521;SDS011;9905;52.126;5.596;2023-03-31T06:52:00;25.08;;;24.17;;
19521;SDS011;9905;52.126;5.596;2023-03-31T06:54:29;26.10;;;24.70;;
19521;SDS011;9905;52.126;5.596;2023-03-31T06:56:56;23.52;;;22.63;;
19521;SDS011;9905;52.126;5.596;2023-03-31T06:59:22;25.13;;;24.00;;
19521;SDS011;9905;52.126;5.596;2023-03-31T07:01:49;24.55;;;23.55;;
19521;SDS011;9905;52.126;5.596;2023-03-31T07:04:16;25.10;;;23.90;;
19521;SDS011;9905;52.126;5.596;2023-03-31T07:06:43;24.92;;;23.70;;
19521;SDS011;9905;52.126;5.596;2023-03-31T07:09:10;25.30;;;24.02;;
19521;SDS011;9905;52.126;5.596;2023-03-31T07:11:38;24.02;;;22.88;;
19521;SDS011;9905;52.126;5.596;2023-03-31T07:14:04;24.65;;;23.65;;
19521;SDS011;9905;52.126;5.596;2023-03-31T07:16:31;24.73;;;23.48;;
19521;SDS011;9905;52.126;5.596;2023-03-31T07:18:58;25.00;;;23.80;;
19521;SDS011;9905;52.126;5.596;2023-03-31T07:21:27;25.27;;;24.05;;
19521;SDS011;9905;52.126;5.596;2023-03-31T07:23:54;25.98;;;24.60;;
19521;SDS011;9905;52.126;5.596;2023-03-31T07:26:21;24.77;;;23.83;;
19521;SDS011;9905;52.126;5.596;2023-03-31T07:28:49;25.48;;;24.38;;
19521;SDS011;9905;52.126;5.596;2023-03-31T07:31:16;25.05;;;23.98;;
19521;SDS011;9905;52.126;5.596;2023-03-31T07:33:43;25.52;;;24.50;;
19521;SDS011;9905;52.126;5.596;2023-03-31T07:36:10;25.02;;;24.00;;
19521;SDS011;9905;52.126;5.596;2023-03-31T07:38:37;29.58;;;28.00;;
19521;SDS011;9905;52.126;5.596;2023-03-31T07:41:04;27.42;;;26.17;;
19521;SDS011;9905;52.126;5.596;2023-03-31T07:43:31;29.40;;;28.10;;
19521;SDS011;9905;52.126;5.596;2023-03-31T07:45:59;26.33;;;25.23;;
19521;SDS011;9905;52.126;5.596;2023-03-31T07:48:25;27.05;;;25.65;;
19521;SDS011;9905;52.126;5.596;2023-03-31T07:50:52;27.45;;;26.25;;
19521;SDS011;9905;52.126;5.596;2023-03-31T07:53:19;27.17;;;26.08;;
19521;SDS011;9905;52.126;5.596;2023-03-31T07:55:46;28.15;;;26.65;;
19521;SDS011;9905;52.126;5.596;2023-03-31T07:58:13;28.17;;;26.98;;
19521;SDS011;9905;52.126;5.596;2023-03-31T08:00:40;27.60;;;26.35;;
19521;SDS011;9905;52.126;5.596;2023-03-31T08:03:08;27.40;;;26.08;;
19521;SDS011;9905;52.126;5.596;2023-03-31T08:05:35;27.75;;;26.65;;
19521;SDS011;9905;52.126;5.596;2023-03-31T08:08:02;31.73;;;30.23;;
19521;SDS011;9905;52.126;5.596;2023-03-31T08:10:29;28.50;;;27.20;;
19521;SDS011;9905;52.126;5.596;2023-03-31T08:12:56;31.30;;;29.70;;
19521;SDS011;9905;52.126;5.596;2023-03-31T08:15:22;29.98;;;28.60;;
19521;SDS011;9905;52.126;5.596;2023-03-31T08:17:49;31.35;;;29.75;;
19521;SDS011;9905;52.126;5.596;2023-03-31T08:20:17;31.85;;;30.50;;
19521;SDS011;9905;52.126;5.596;2023-03-31T08:22:44;28.83;;;27.52;;
19521;SDS011;9905;52.126;5.596;2023-03-31T08:25:11;28.45;;;27.02;;
19521;SDS011;9905;52.126;5.596;2023-03-31T08:27:38;31.50;;;29.90;;
19521;SDS011;9905;52.126;5.596;2023-03-31T08:30:06;32.25;;;30.80;;
19521;SDS011;9905;52.126;5.596;2023-03-31T08:32:35;33.03;;;31.50;;
19521;SDS011;9905;52.126;5.596;2023-03-31T08:35:02;32.53;;;30.98;;
19521;SDS011;9905;52.126;5.596;2023-03-31T08:37:31;32.78;;;31.30;;
19521;SDS011;9905;52.126;5.596;2023-03-31T08:39:58;34.13;;;32.53;;
19521;SDS011;9905;52.126;5.596;2023-03-31T08:42:27;33.65;;;31.88;;
19521;SDS011;9905;52.126;5.596;2023-03-31T08:45:02;32.97;;;31.15;;
19521;SDS011;9905;52.126;5.596;2023-03-31T08:47:32;33.45;;;31.60;;
19521;SDS011;9905;52.126;5.596;2023-03-31T08:50:04;33.47;;;31.75;;
19521;SDS011;9905;52.126;5.596;2023-03-31T08:52:35;32.70;;;30.95;;
19521;SDS011;9905;52.126;5.596;2023-03-31T08:55:06;33.25;;;31.63;;
19521;SDS011;9905;52.126;5.596;2023-03-31T08:57:37;31.38;;;29.33;;
19521;SDS011;9905;52.126;5.596;2023-03-31T09:00:13;30.63;;;28.83;;
19521;SDS011;9905;52.126;5.596;2023-03-31T09:02:42;32.85;;;31.13;;
19521;SDS011;9905;52.126;5.596;2023-03-31T09:08:18;31.35;;;29.85;;
19521;SDS011;9905;52.126;5.596;2023-03-31T09:10:53;32.78;;;31.10;;
19521;SDS011;9905;52.126;5.596;2023-03-31T09:13:26;35.13;;;32.53;;
19521;SDS011;9905;52.126;5.596;2023-03-31T09:16:04;34.83;;;32.75;;
19521;SDS011;9905;52.126;5.596;2023-03-31T09:18:38;35.08;;;33.10;;
19521;SDS011;9905;52.126;5.596;2023-03-31T09:21:11;31.80;;;29.98;;
19521;SDS011;9905;52.126;5.596;2023-03-31T09:23:45;32.40;;;30.13;;
19521;SDS011;9905;52.126;5.596;2023-03-31T09:26:19;33.70;;;30.83;;
19521;SDS011;9905;52.126;5.596;2023-03-31T09:28:50;32.17;;;29.48;;
19521;SDS011;9905;52.126;5.596;2023-03-31T09:31:18;32.63;;;30.33;;
19521;SDS011;9905;52.126;5.596;2023-03-31T09:33:46;31.10;;;29.08;;
19521;SDS011;9905;52.126;5.596;2023-03-31T09:36:16;30.80;;;28.63;;
19521;SDS011;9905;52.126;5.596;2023-03-31T09:38:48;30.35;;;27.88;;
19521;SDS011;9905;52.126;5.596;2023-03-31T09:41:16;29.98;;;27.63;;
19521;SDS011;9905;52.126;5.596;2023-03-31T09:43:44;29.85;;;27.60;;
19521;SDS011;9905;52.126;5.596;2023-03-31T09:46:14;27.90;;;25.95;;
19521;SDS011;9905;52.126;5.596;2023-03-31T09:48:47;27.85;;;25.60;;
19521;SDS011;9905;52.126;5.596;2023-03-31T09:51:19;26.02;;;23.80;;
19521;SDS011;9905;52.126;5.596;2023-03-31T09:53:53;27.10;;;25.42;;
19521;SDS011;9905;52.126;5.596;2023-03-31T09:56:44;26.08;;;24.48;;
19521;SDS011;9905;52.126;5.596;2023-03-31T09:59:13;26.67;;;25.10;;
19521;SDS011;9905;52.126;5.596;2023-03-31T10:01:42;26.08;;;24.50;;
19521;SDS011;9905;52.126;5.596;2023-03-31T10:04:15;24.90;;;23.20;;
19521;SDS011;9905;52.126;5.596;2023-03-31T10:06:45;25.65;;;23.92;;
19521;SDS011;9905;52.126;5.596;2023-03-31T10:09:14;25.80;;;23.85;;
19521;SDS011;9905;52.126;5.596;2023-03-31T10:11:50;22.55;;;20.80;;
19521;SDS011;9905;52.126;5.596;2023-03-31T10:14:26;23.20;;;21.30;;
19521;SDS011;9905;52.126;5.596;2023-03-31T10:17:03;22.92;;;21.25;;
19521;SDS011;9905;52.126;5.596;2023-03-31T10:19:32;23.38;;;21.58;;
19521;SDS011;9905;52.126;5.596;2023-03-31T10:22:02;21.70;;;20.30;;
19521;SDS011;9905;52.126;5.596;2023-03-31T10:24:38;21.73;;;19.98;;
19521;SDS011;9905;52.126;5.596;2023-03-31T10:27:12;21.77;;;20.10;;
19521;SDS011;9905;52.126;5.596;2023-03-31T10:29:43;18.88;;;17.55;;
19521;SDS011;9905;52.126;5.596;2023-03-31T10:32:13;20.98;;;19.55;;
19521;SDS011;9905;52.126;5.596;2023-03-31T10:34:46;17.58;;;16.13;;
19521;SDS011;9905;52.126;5.596;2023-03-31T10:37:13;16.77;;;15.63;;
19521;SDS011;9905;52.126;5.596;2023-03-31T10:39:44;18.17;;;16.70;;
19521;SDS011;9905;52.126;5.596;2023-03-31T10:42:17;18.05;;;16.20;;
19521;SDS011;9905;52.126;5.596;2023-03-31T10:44:46;15.10;;;13.93;;
19521;SDS011;9905;52.126;5.596;2023-03-31T10:47:17;13.73;;;12.73;;
19521;SDS011;9905;52.126;5.596;2023-03-31T10:49:47;13.68;;;12.50;;
19521;SDS011;9905;52.126;5.596;2023-03-31T10:52:17;14.02;;;12.73;;
19521;SDS011;9905;52.126;5.596;2023-03-31T10:54:47;12.35;;;11.20;;
19521;SDS011;9905;52.126;5.596;2023-03-31T10:57:15;11.80;;;10.95;;
19521;SDS011;9905;52.126;5.596;2023-03-31T11:02:43;11.63;;;10.93;;
19521;SDS011;9905;52.126;5.596;2023-03-31T11:05:21;12.07;;;11.18;;
19521;SDS011;9905;52.126;5.596;2023-03-31T11:07:53;11.35;;;10.43;;
19521;SDS011;9905;52.126;5.596;2023-03-31T11:10:42;10.20;;;9.40;;
19521;SDS011;9905;52.126;5.596;2023-03-31T11:13:21;10.57;;;9.77;;
19521;SDS011;9905;52.126;5.596;2023-03-31T11:15:57;11.43;;;10.15;;
19521;SDS011;9905;52.126;5.596;2023-03-31T11:18:33;12.07;;;10.85;;
19521;SDS011;9905;52.126;5.596;2023-03-31T11:21:09;11.05;;;10.02;;
19521;SDS011;9905;52.126;5.596;2023-03-31T11:23:45;10.70;;;10.05;;
19521;SDS011;9905;52.126;5.596;2023-03-31T11:26:21;11.75;;;10.82;;
19521;SDS011;9905;52.126;5.596;2023-03-31T11:28:58;12.50;;;11.23;;
19521;SDS011;9905;52.126;5.596;2023-03-31T11:31:32;11.75;;;11.13;;
19521;SDS011;9905;52.126;5.596;2023-03-31T11:34:12;12.73;;;11.75;;
19521;SDS011;9905;52.126;5.596;2023-03-31T11:37:02;13.05;;;12.00;;
19521;SDS011;9905;52.126;5.596;2023-03-31T11:39:45;14.23;;;13.35;;
19521;SDS011;9905;52.126;5.596;2023-03-31T11:42:23;13.43;;;12.82;;
19521;SDS011;9905;52.126;5.596;2023-03-31T11:44:53;12.98;;;12.18;;
19521;SDS011;9905;52.126;5.596;2023-03-31T11:47:29;14.30;;;13.30;;
19521;SDS011;9905;52.126;5.596;2023-03-31T11:49:59;14.73;;;13.40;;
19521;SDS011;9905;52.126;5.596;2023-03-31T11:52:30;14.02;;;13.02;;
19521;SDS011;9905;52.126;5.596;2023-03-31T11:55:00;15.43;;;14.35;;
19521;SDS011;9905;52.126;5.596;2023-03-31T11:57:34;18.20;;;16.67;;
19521;SDS011;9905;52.126;5.596;2023-03-31T12:00:06;19.00;;;17.48;;
19521;SDS011;9905;52.126;5.596;2023-03-31T12:02:39;17.75;;;16.67;;
19521;SDS011;9905;52.126;5.596;2023-03-31T12:05:14;18.02;;;16.85;;
19521;SDS011;9905;52.126;5.596;2023-03-31T12:07:43;20.20;;;18.52;;
19521;SDS011;9905;52.126;5.596;2023-03-31T12:10:16;19.90;;;18.55;;
19521;SDS011;9905;52.126;5.596;2023-03-31T12:12:48;20.50;;;19.23;;
19521;SDS011;9905;52.126;5.596;2023-03-31T12:15:20;22.05;;;20.63;;
19521;SDS011;9905;52.126;5.596;2023-03-31T12:17:52;22.20;;;20.80;;
19521;SDS011;9905;52.126;5.596;2023-03-31T12:20:27;22.80;;;21.20;;
19521;SDS011;9905;52.126;5.596;2023-03-31T12:22:57;20.88;;;19.45;;
19521;SDS011;9905;52.126;5.596;2023-03-31T12:25:28;21.75;;;20.23;;
19521;SDS011;9905;52.126;5.596;2023-03-31T12:28:06;21.95;;;20.33;;
19521;SDS011;9905;52.126;5.596;2023-03-31T12:30:35;21.50;;;19.98;;
19521;SDS011;9905;52.126;5.596;2023-03-31T12:33:08;22.27;;;20.50;;
19521;SDS011;9905;52.126;5.596;2023-03-31T12:35:43;21.52;;;19.92;;
19521;SDS011;9905;52.126;5.596;2023-03-31T12:38:28;20.58;;;19.50;;
19521;SDS011;9905;52.126;5.596;2023-03-31T12:41:16;20.52;;;19.10;;
19521;SDS011;9905;52.126;5.596;2023-03-31T12:46:55;20.80;;;19.75;;
19521;SDS011;9905;52.126;5.596;2023-03-31T12:49:50;21.13;;;20.00;;
19521;SDS011;9905;52.126;5.596;2023-03-31T12:52:31;22.23;;;20.75;;
19521;SDS011;9905;52.126;5.596;2023-03-31T13:01:02;23.85;;;22.50;;
19521;SDS011;9905;52.126;5.596;2023-03-31T13:03:39;23.83;;;22.02;;
19521;SDS011;9905;52.126;5.596;2023-03-31T13:06:09;24.05;;;22.73;;
19521;SDS011;9905;52.126;5.596;2023-03-31T13:08:57;24.33;;;22.38;;
19521;SDS011;9905;52.126;5.596;2023-03-31T13:11:35;23.85;;;22.67;;
19521;SDS011;9905;52.126;5.596;2023-03-31T13:14:05;23.75;;;22.25;;
19521;SDS011;9905;52.126;5.596;2023-03-31T13:16:39;24.90;;;23.05;;
19521;SDS011;9905;52.126;5.596;2023-03-31T13:19:06;22.48;;;20.77;;
19521;SDS011;9905;52.126;5.596;2023-03-31T13:21:50;23.83;;;21.98;;
19521;SDS011;9905;52.126;5.596;2023-03-31T13:24:20;23.70;;;22.13;;
19521;SDS011;9905;52.126;5.596;2023-03-31T13:26:47;22.67;;;21.17;;
19521;SDS011;9905;52.126;5.596;2023-03-31T13:29:19;22.63;;;21.27;;
19521;SDS011;9905;52.126;5.596;2023-03-31T13:32:15;21.48;;;20.10;;
19521;SDS011;9905;52.126;5.596;2023-03-31T13:34:46;21.27;;;20.05;;
19521;SDS011;9905;52.126;5.596;2023-03-31T13:37:18;21.02;;;19.60;;
19521;SDS011;9905;52.126;5.596;2023-03-31T13:40:04;19.35;;;18.35;;
19521;SDS011;9905;52.126;5.596;2023-03-31T13:43:01;19.40;;;17.65;;
19521;SDS011;9905;52.126;5.596;2023-03-31T13:45:46;17.55;;;16.60;;
19521;SDS011;9905;52.126;5.596;2023-03-31T13:48:24;16.85;;;15.65;;
19521;SDS011;9905;52.126;5.596;2023-03-31T13:53:51;18.58;;;17.02;;
19521;SDS011;9905;52.126;5.596;2023-03-31T13:56:32;18.65;;;17.55;;
19521;SDS011;9905;52.126;5.596;2023-03-31T13:59:32;19.42;;;18.33;;
19521;SDS011;9905;52.126;5.596;2023-03-31T14:08:00;19.85;;;18.90;;
19521;SDS011;9905;52.126;5.596;2023-03-31T14:10:31;20.30;;;19.00;;
19521;SDS011;9905;52.126;5.596;2023-03-31T14:13:03;19.73;;;18.90;;
19521;SDS011;9905;52.126;5.596;2023-03-31T14:15:34;18.90;;;17.90;;
19521;SDS011;9905;52.126;5.596;2023-03-31T14:18:03;18.30;;;17.10;;
19521;SDS011;9905;52.126;5.596;2023-03-31T14:20:35;19.80;;;18.67;;
19521;SDS011;9905;52.126;5.596;2023-03-31T14:23:12;18.08;;;17.38;;
19521;SDS011;9905;52.126;5.596;2023-03-31T14:25:49;17.52;;;16.75;;
19521;SDS011;9905;52.126;5.596;2023-03-31T14:31:14;17.10;;;16.40;;
19521;SDS011;9905;52.126;5.596;2023-03-31T14:33:47;16.65;;;15.50;;
19521;SDS011;9905;52.126;5.596;2023-03-31T14:36:30;16.70;;;15.95;;
19521;SDS011;9905;52.126;5.596;2023-03-31T14:39:03;16.77;;;16.13;;
19521;SDS011;9905;52.126;5.596;2023-03-31T14:41:32;19.00;;;18.10;;
19521;SDS011;9905;52.126;5.596;2023-03-31T14:44:02;19.33;;;18.30;;
19521;SDS011;9905;52.126;5.596;2023-03-31T14:46:31;17.85;;;17.20;;
19521;SDS011;9905;52.126;5.596;2023-03-31T14:49:05;18.38;;;17.48;;
19521;SDS011;9905;52.126;5.596;2023-03-31T14:51:41;19.55;;;18.55;;
19521;SDS011;9905;52.126;5.596;2023-03-31T14:54:13;19.05;;;17.85;;
19521;SDS011;9905;52.126;5.596;2023-03-31T14:56:42;20.02;;;19.23;;
19521;SDS011;9905;52.126;5.596;2023-03-31T14:59:09;18.48;;;17.67;;
19521;SDS011;9905;52.126;5.596;2023-03-31T15:01:41;20.60;;;19.80;;
19521;SDS011;9905;52.126;5.596;2023-03-31T15:04:12;19.10;;;18.30;;
19521;SDS011;9905;52.126;5.596;2023-03-31T15:06:45;18.13;;;17.27;;
19521;SDS011;9905;52.126;5.596;2023-03-31T15:09:14;18.55;;;17.73;;
19521;SDS011;9905;52.126;5.596;2023-03-31T15:11:45;16.67;;;16.13;;
19521;SDS011;9905;52.126;5.596;2023-03-31T15:14:13;16.85;;;15.80;;
19521;SDS011;9905;52.126;5.596;2023-03-31T15:16:40;17.08;;;16.20;;
19521;SDS011;9905;52.126;5.596;2023-03-31T15:19:13;16.65;;;15.93;;
19521;SDS011;9905;52.126;5.596;2023-03-31T15:21:41;15.85;;;15.20;;
19521;SDS011;9905;52.126;5.596;2023-03-31T15:24:11;17.00;;;15.88;;
19521;SDS011;9905;52.126;5.596;2023-03-31T15:26:39;17.08;;;16.40;;
19521;SDS011;9905;52.126;5.596;2023-03-31T15:29:12;17.15;;;16.25;;
19521;SDS011;9905;52.126;5.596;2023-03-31T15:31:42;17.10;;;16.50;;
19521;SDS011;9905;52.126;5.596;2023-03-31T15:34:18;18.55;;;17.85;;
19521;SDS011;9905;52.126;5.596;2023-03-31T15:36:49;18.00;;;17.33;;